Time;durP1;ratioP1;P1;durP2;ratioP2;P2;SDS_P1;SDS_P2;PMS_P1;PMS_P2;Temp;Humidity;BMP_temperature;BMP_pressure;BME280_temperature;BME280_humidity;BME280_pressure;Samples;Min_cycle;Max_cycle;Signal;HPM_P1;HPM_P2
2020/12/04 00:00:34;;;;;;;8.73;5.85;;;4.80;99.90;;;;;;5029261;28;20072;-74
2020/12/04 00:02:59;;;;;;;11.50;6.22;;;4.80;99.90;;;;;;5026954;28;20248;-75
2020/12/04 00:05:25;;;;;;;8.15;5.82;;;4.80;99.90;;;;;;5027385;28;20388;-74
2020/12/04 00:07:51;;;;;;;7.68;5.65;;;4.80;99.90;;;;;;5027762;28;20051;-74
2020/12/04 00:10:16;;;;;;;9.35;6.18;;;4.80;99.90;;;;;;5011515;28;20395;-73
2020/12/04 00:12:42;;;;;;;10.15;6.70;;;4.80;99.90;;;;;;5029255;28;20030;-74
2020/12/04 00:15:08;;;;;;;8.82;5.60;;;4.80;99.90;;;;;;5029293;28;20355;-75
2020/12/04 00:17:35;;;;;;;8.35;5.43;;;4.80;99.90;;;;;;5031555;28;20065;-75
2020/12/04 00:20:02;;;;;;;8.73;6.07;;;4.80;99.90;;;;;;5028894;28;20459;-75
2020/12/04 00:22:28;;;;;;;9.27;6.03;;;4.80;99.90;;;;;;4998320;28;20107;-74
2020/12/04 00:24:53;;;;;;;9.40;6.25;;;4.80;99.90;;;;;;5033730;28;20033;-75
2020/12/04 00:27:19;;;;;;;11.25;6.60;;;4.80;99.90;;;;;;5024081;28;20570;-76
2020/12/04 00:29:45;;;;;;;10.00;6.50;;;4.80;99.90;;;;;;5027825;28;20139;-74
2020/12/04 00:32:10;;;;;;;10.27;6.75;;;4.80;99.90;;;;;;5028541;28;20042;-75
2020/12/04 00:34:36;;;;;;;11.13;6.15;;;4.70;99.90;;;;;;5027218;28;20038;-75
2020/12/04 00:37:02;;;;;;;9.00;6.55;;;4.70;99.90;;;;;;5031325;28;20095;-73
2020/12/04 00:39:27;;;;;;;11.00;6.50;;;4.70;99.90;;;;;;5028140;28;20033;-75
2020/12/04 00:41:59;;;;;;;9.55;6.55;;;4.70;99.90;;;;;;5025507;28;20137;-74
2020/12/04 00:44:24;;;;;;;10.13;6.85;;;4.70;99.90;;;;;;5029412;28;20067;-75
2020/12/04 00:46:50;;;;;;;11.00;6.97;;;4.70;99.90;;;;;;5021456;28;20041;-75
2020/12/04 00:49:16;;;;;;;11.75;6.47;;;4.70;99.90;;;;;;5030446;28;20120;-73
2020/12/04 00:51:42;;;;;;;11.90;7.10;;;4.70;99.90;;;;;;5026453;28;20079;-74
2020/12/04 00:54:07;;;;;;;9.35;6.30;;;4.70;99.90;;;;;;5029452;28;20036;-75
2020/12/04 00:56:34;;;;;;;12.23;7.18;;;4.70;99.90;;;;;;5027281;28;20115;-75
2020/12/04 00:59:00;;;;;;;9.32;6.30;;;4.70;99.90;;;;;;5025901;28;20112;-76
2020/12/04 01:01:26;;;;;;;10.07;6.45;;;4.80;99.90;;;;;;5029059;28;20037;-74
2020/12/04 01:03:52;;;;;;;11.25;7.18;;;4.70;99.90;;;;;;5027502;28;20248;-75
2020/12/04 01:06:18;;;;;;;10.73;6.85;;;4.70;99.90;;;;;;5027898;28;20037;-75
2020/12/04 01:08:43;;;;;;;10.05;7.03;;;4.80;99.90;;;;;;5028226;28;20183;-75
2020/12/04 01:11:10;;;;;;;9.23;6.18;;;4.70;99.90;;;;;;5028595;28;20541;-75
2020/12/04 01:13:36;;;;;;;9.93;6.53;;;6.30;99.90;;;;;;5028108;28;20042;-76
2020/12/04 01:16:02;;;;;;;10.70;6.85;;;4.70;99.90;;;;;;5025859;28;20048;-74
2020/12/04 01:18:28;;;;;;;10.65;6.45;;;4.80;99.90;;;;;;5010462;28;20604;-75
2020/12/04 01:20:54;;;;;;;7.93;5.63;;;4.80;99.90;;;;;;5045725;28;20049;-76
2020/12/04 01:23:19;;;;;;;9.48;6.28;;;4.90;99.90;;;;;;5028844;28;20044;-75
2020/12/04 01:25:45;;;;;;;9.35;5.95;;;4.80;99.90;;;;;;5028147;28;20450;-75
2020/12/04 01:28:11;;;;;;;9.77;5.85;;;4.80;99.90;;;;;;5027987;28;20116;-75
2020/12/04 01:30:37;;;;;;;10.73;6.15;;;4.80;99.90;;;;;;5024918;28;20053;-74
2020/12/04 01:33:02;;;;;;;9.23;6.40;;;4.80;99.90;;;;;;5026822;28;20055;-76
2020/12/04 01:35:28;;;;;;;9.88;6.07;;;4.90;99.90;;;;;;5030108;28;20101;-74
2020/12/04 01:37:54;;;;;;;9.00;6.10;;;4.90;99.90;;;;;;5026564;28;20117;-74
2020/12/04 01:40:21;;;;;;;8.85;6.20;;;5.00;99.90;;;;;;5025591;28;20549;-74
2020/12/04 01:42:47;;;;;;;8.32;5.55;;;5.00;99.90;;;;;;5027600;28;20096;-74
2020/12/04 01:45:13;;;;;;;8.82;6.10;;;4.90;99.90;;;;;;5027985;28;20029;-75
2020/12/04 01:47:39;;;;;;;9.05;5.50;;;4.90;99.90;;;;;;5025709;28;20045;-75
2020/12/04 01:50:05;;;;;;;9.63;5.80;;;4.90;99.90;;;;;;5028657;28;20034;-74
2020/12/04 01:52:31;;;;;;;8.68;6.10;;;4.90;99.90;;;;;;5022412;28;20399;-76
2020/12/04 01:54:57;;;;;;;7.13;4.90;;;4.90;99.90;;;;;;5024515;28;20048;-74
2020/12/04 01:57:26;;;;;;;9.68;5.40;;;4.90;99.90;;;;;;5027224;28;20435;-75
2020/12/04 01:59:52;;;;;;;9.23;5.78;;;4.90;99.90;;;;;;5024283;28;20442;-75
2020/12/04 02:02:19;;;;;;;8.77;6.05;;;4.90;99.90;;;;;;5026363;28;20037;-74
2020/12/04 02:04:46;;;;;;;9.40;5.88;;;4.90;99.90;;;;;;5026233;28;20036;-74
2020/12/04 02:07:39;;;;;;;8.82;5.78;;;5.00;99.90;;;;;;5023503;28;20042;-75
2020/12/04 02:10:20;;;;;;;9.32;5.93;;;4.80;99.90;;;;;;5028536;28;20291;-75
2020/12/04 02:12:48;;;;;;;10.30;5.22;;;5.00;99.90;;;;;;5027388;28;20403;-74
2020/12/04 02:15:15;;;;;;;7.63;5.00;;;5.00;99.90;;;;;;5025610;28;20342;-74
2020/12/04 02:17:41;;;;;;;9.68;5.40;;;5.10;99.90;;;;;;5026920;28;20029;-73
2020/12/04 02:20:10;;;;;;;8.32;5.45;;;5.10;99.90;;;;;;5023150;28;20026;-74
2020/12/04 02:22:37;;;;;;;8.32;4.95;;;5.20;99.90;;;;;;5022356;28;20402;-74
2020/12/04 02:25:08;;;;;;;7.55;4.40;;;5.20;99.90;;;;;;5024824;28;20041;-75
2020/12/04 02:27:44;;;;;;;6.50;4.40;;;5.30;99.90;;;;;;5024541;28;20116;-76
2020/12/04 02:30:12;;;;;;;7.38;4.07;;;5.30;99.90;;;;;;5024846;28;20112;-76
2020/12/04 02:32:37;;;;;;;7.22;3.67;;;5.30;99.90;;;;;;5025721;28;20117;-76
2020/12/04 02:35:03;;;;;;;7.28;4.15;;;5.40;99.90;;;;;;5021635;28;20149;-75
2020/12/04 02:37:28;;;;;;;7.63;4.13;;;5.40;99.90;;;;;;5025607;28;20029;-74
2020/12/04 02:39:54;;;;;;;6.13;3.63;;;5.40;99.90;;;;;;5028324;28;20068;-75
2020/12/04 02:42:20;;;;;;;6.90;3.40;;;5.50;99.90;;;;;;5026560;28;20043;-74
2020/12/04 02:44:46;;;;;;;4.47;2.72;;;5.50;99.90;;;;;;5024488;28;20403;-77
2020/12/04 02:47:12;;;;;;;4.15;2.60;;;5.60;99.90;;;;;;5027051;28;20038;-74
2020/12/04 02:49:38;;;;;;;5.03;2.28;;;5.70;99.90;;;;;;5006130;28;20041;-75
2020/12/04 02:52:04;;;;;;;3.53;1.77;;;5.80;99.90;;;;;;5002622;28;20728;-75
2020/12/04 02:54:29;;;;;;;4.13;1.60;;;5.90;99.90;;;;;;5030369;28;20055;-74
2020/12/04 02:56:55;;;;;;;2.80;1.58;;;6.20;99.90;;;;;;5027809;28;20404;-74
2020/12/04 02:59:21;;;;;;;3.67;1.50;;;6.30;99.90;;;;;;5007785;28;20049;-75
2020/12/04 03:01:46;;;;;;;1.42;1.00;;;6.40;99.90;;;;;;4996216;28;20057;-74
2020/12/04 03:04:12;;;;;;;2.25;1.00;;;6.50;99.90;;;;;;5024507;28;20523;-76
2020/12/04 03:06:37;;;;;;;1.73;0.90;;;6.70;99.90;;;;;;5026524;28;20124;-76
2020/12/04 03:09:03;;;;;;;2.15;1.05;;;6.80;99.90;;;;;;5026979;28;20030;-74
2020/12/04 03:11:29;;;;;;;0.88;0.75;;;7.00;99.90;;;;;;5025686;28;20037;-75
2020/12/04 03:13:54;;;;;;;1.88;0.77;;;7.00;99.90;;;;;;5025433;28;20028;-77
2020/12/04 03:16:20;;;;;;;1.02;0.90;;;7.00;99.90;;;;;;5009465;28;20045;-74
2020/12/04 03:18:46;;;;;;;0.85;0.70;;;7.10;99.90;;;;;;5021520;28;20120;-75
2020/12/04 03:21:12;;;;;;;0.98;0.70;;;7.20;99.90;;;;;;5027880;28;20376;-74
2020/12/04 03:23:37;;;;;;;3.03;0.90;;;7.30;99.50;;;;;;5027045;28;20061;-75
2020/12/04 03:26:03;;;;;;;1.73;0.60;;;7.30;99.60;;;;;;5026153;28;20445;-75
2020/12/04 03:28:29;;;;;;;1.77;0.70;;;7.20;99.80;;;;;;5024347;28;20145;-74
2020/12/04 03:30:56;;;;;;;0.73;0.65;;;7.40;99.50;;;;;;5008959;28;20056;-75
2020/12/04 03:33:22;;;;;;;0.70;0.52;;;7.40;99.60;;;;;;5026700;28;20503;-74
2020/12/04 03:35:47;;;;;;;2.35;0.88;;;7.40;99.50;;;;;;5029661;28;20044;-74
2020/12/04 03:38:13;;;;;;;1.52;0.90;;;7.40;99.30;;;;;;5006821;28;20041;-76
2020/12/04 03:40:39;;;;;;;2.15;0.70;;;7.40;99.40;;;;;;5028929;28;20037;-73
2020/12/04 03:43:05;;;;;;;1.60;0.80;;;7.30;99.70;;;;;;5027144;28;20114;-75
2020/12/04 03:45:30;;;;;;;1.88;0.70;;;7.20;99.70;;;;;;5025980;28;20503;-76
2020/12/04 03:47:56;;;;;;;0.60;0.57;;;7.20;99.70;;;;;;5011755;28;20052;-74
2020/12/04 03:50:22;;;;;;;0.68;0.60;;;7.20;99.80;;;;;;5026498;28;20045;-74
2020/12/04 03:52:47;;;;;;;0.88;0.63;;;7.20;99.90;;;;;;5010068;28;20491;-76
2020/12/04 03:55:13;;;;;;;0.70;0.60;;;7.20;99.80;;;;;;5028531;28;20033;-75
2020/12/04 03:57:39;;;;;;;0.75;0.32;;;7.20;99.60;;;;;;5030792;28;20037;-75
2020/12/04 04:00:07;;;;;;;1.17;0.70;;;7.40;99.10;;;;;;5029862;28;20561;-74
2020/12/04 04:02:33;;;;;;;2.63;0.80;;;7.60;98.80;;;;;;5030892;28;20022;-75
2020/12/04 04:04:58;;;;;;;1.20;0.80;;;7.50;98.90;;;;;;5005355;28;20037;-74
2020/12/04 04:07:24;;;;;;;0.82;0.60;;;7.50;98.80;;;;;;5011438;28;20442;-75
2020/12/04 04:09:49;;;;;;;1.73;0.60;;;7.50;99.10;;;;;;5022381;28;20049;-75
2020/12/04 04:12:15;;;;;;;2.58;0.50;;;7.40;99.30;;;;;;5010762;28;20073;-74
2020/12/04 04:14:40;;;;;;;2.78;0.63;;;7.50;99.10;;;;;;5028522;28;20029;-75
2020/12/04 04:17:06;;;;;;;1.85;0.70;;;7.60;99.20;;;;;;5028704;28;20416;-74
2020/12/04 04:19:32;;;;;;;1.27;0.80;;;7.60;99.60;;;;;;5025063;28;20037;-76
2020/12/04 04:21:57;;;;;;;0.90;0.52;;;7.30;99.50;;;;;;5024395;28;20045;-74
2020/12/04 04:24:23;;;;;;;5.50;1.00;;;7.40;99.70;;;;;;5029811;28;20033;-75
2020/12/04 04:26:49;;;;;;;0.77;0.70;;;7.40;99.90;;;;;;5029525;28;20136;-76
2020/12/04 04:29:15;;;;;;;0.77;0.60;;;7.40;99.90;;;;;;5027960;28;20157;-74
2020/12/04 04:31:41;;;;;;;1.58;1.10;;;7.30;99.90;;;;;;5028718;28;20887;-74
2020/12/04 04:34:06;;;;;;;0.93;0.60;;;7.30;99.90;;;;;;5039583;28;20116;-75
2020/12/04 04:36:32;;;;;;;1.10;0.70;;;7.30;99.90;;;;;;5027874;28;20545;-74
2020/12/04 04:38:58;;;;;;;1.50;0.75;;;7.20;99.90;;;;;;5028710;28;20029;-74
2020/12/04 04:41:24;;;;;;;2.05;0.60;;;7.10;99.90;;;;;;5024878;28;20148;-75
2020/12/04 04:43:50;;;;;;;1.10;0.68;;;7.30;99.90;;;;;;5028301;28;20041;-75
2020/12/04 04:46:27;;;;;;;2.20;0.60;;;7.20;99.90;;;;;;5028251;28;20561;-74
2020/12/04 04:48:58;;;;;;;1.83;0.70;;;7.20;99.90;;;;;;5030606;28;20091;-74
2020/12/04 04:51:24;;;;;;;1.00;0.60;;;7.30;99.90;;;;;;5026979;28;20049;-75
2020/12/04 04:53:57;;;;;;;1.20;0.70;;;7.30;99.90;;;;;;5028720;28;20037;-74
2020/12/04 04:56:23;;;;;;;1.40;0.70;;;7.30;99.90;;;;;;5024071;28;20079;-74
2020/12/04 04:58:49;;;;;;;0.80;0.60;;;7.30;99.70;;;;;;5028146;28;20040;-75
2020/12/04 05:01:15;;;;;;;0.80;0.70;;;7.40;99.50;;;;;;5027009;28;20439;-74
2020/12/04 05:03:54;;;;;;;0.93;0.57;;;7.30;99.90;;;;;;5026466;28;20465;-75
2020/12/04 05:06:37;;;;;;;2.35;0.70;;;7.30;99.80;;;;;;5022079;28;20514;-76
2020/12/04 05:09:07;;;;;;;1.23;0.80;;;7.30;99.90;;;;;;5029812;28;20442;-75
2020/12/04 05:11:33;;;;;;;1.65;0.60;;;7.30;99.90;;;;;;5029149;28;20021;-74
2020/12/04 05:14:22;;;;;;;1.08;0.60;;;7.40;99.90;;;;;;5022804;28;20145;-74
2020/12/04 05:16:53;;;;;;;1.27;0.70;;;7.40;99.90;;;;;;5039429;28;20368;-73
2020/12/04 05:19:36;;;;;;;0.65;0.60;;;7.40;99.90;;;;;;5025595;28;20510;-74
2020/12/04 05:22:09;;;;;;;1.10;0.70;;;7.40;99.90;;;;;;5027200;28;20068;-77
2020/12/04 05:24:34;;;;;;;2.05;0.70;;;7.40;99.40;;;;;;5041927;28;20060;-74
2020/12/04 05:27:00;;;;;;;3.00;0.70;;;7.40;99.90;;;;;;5027195;28;20053;-75
2020/12/04 05:29:38;;;;;;;1.35;0.68;;;7.30;99.90;;;;;;5026524;28;20033;-76
2020/12/04 05:32:14;;;;;;;1.08;0.68;;;7.30;99.90;;;;;;5029449;28;20072;-75
2020/12/04 05:34:40;;;;;;;0.95;0.70;;;7.30;99.90;;;;;;5031118;28;20060;-76
2020/12/04 05:37:05;;;;;;;1.25;0.50;;;7.30;99.90;;;;;;5025025;28;20073;-73
2020/12/04 05:39:41;;;;;;;1.08;0.65;;;7.30;99.70;;;;;;5021150;28;20054;-74
2020/12/04 05:42:07;;;;;;;2.00;0.68;;;7.30;99.90;;;;;;5028276;28;20104;-74
2020/12/04 05:44:33;;;;;;;1.10;0.95;;;7.40;99.50;;;;;;5038632;28;20128;-75
2020/12/04 05:46:59;;;;;;;0.60;0.60;;;7.40;99.50;;;;;;5019644;28;20452;-74
2020/12/04 05:49:24;;;;;;;0.75;0.52;;;7.40;99.50;;;;;;5020510;28;20040;-76
2020/12/04 05:51:55;;;;;;;0.80;0.77;;;7.40;99.30;;;;;;5015104;28;20514;-75
2020/12/04 05:54:21;;;;;;;1.65;0.60;;;7.50;99.30;;;;;;5020100;28;20044;-76
2020/12/04 05:56:51;;;;;;;1.50;0.80;;;7.40;99.30;;;;;;5020003;28;20685;-75
2020/12/04 05:59:21;;;;;;;1.77;0.80;;;7.60;98.70;;;;;;5025990;28;20031;-76
2020/12/04 06:01:47;;;;;;;1.05;0.70;;;7.50;98.90;;;;;;5022587;28;20903;-75
2020/12/04 06:04:19;;;;;;;0.88;0.68;;;7.40;99.10;;;;;;5015706;28;20065;-75
2020/12/04 06:06:45;;;;;;;1.42;0.90;;;7.40;99.20;;;;;;5014454;28;20085;-74
2020/12/04 06:09:11;;;;;;;2.67;0.65;;;7.40;99.30;;;;;;5024844;28;20057;-76
2020/12/04 06:11:39;;;;;;;3.95;0.52;;;7.30;99.40;;;;;;5029826;28;20025;-75
2020/12/04 06:14:21;;;;;;;1.70;0.80;;;7.30;99.50;;;;;;5033398;28;20033;-75
2020/12/04 06:17:10;;;;;;;1.90;0.80;;;7.50;99.10;;;;;;5032034;28;20586;-75
2020/12/04 06:19:41;;;;;;;0.68;0.60;;;7.50;98.80;;;;;;5029977;28;20125;-73
2020/12/04 06:22:08;;;;;;;0.80;0.68;;;7.60;98.50;;;;;;5015314;28;20050;-75
2020/12/04 06:24:56;;;;;;;0.88;0.80;;;7.60;98.50;;;;;;5025166;28;20552;-75
2020/12/04 06:27:45;;;;;;;4.78;1.00;;;7.60;98.20;;;;;;5025848;28;20037;-75
2020/12/04 06:30:13;;;;;;;1.38;0.60;;;7.70;98.20;;;;;;5016631;28;20096;-76
2020/12/04 06:32:50;;;;;;;0.75;0.65;;;7.50;98.60;;;;;;5013258;28;20034;-75
2020/12/04 06:35:41;;;;;;;2.08;0.77;;;7.40;98.90;;;;;;5020783;28;20021;-76
2020/12/04 06:38:37;;;;;;;3.67;1.00;;;7.40;99.00;;;;;;5018557;28;20571;-76
2020/12/04 06:41:22;;;;;;;1.65;0.88;;;7.40;99.00;;;;;;5027470;28;20538;-75
2020/12/04 06:43:49;;;;;;;1.25;0.85;;;7.40;98.90;;;;;;5026545;28;20065;-75
2020/12/04 06:46:27;;;;;;;1.17;0.82;;;7.40;98.80;;;;;;5029302;28;20060;-76
2020/12/04 06:49:12;;;;;;;1.73;0.90;;;7.40;99.10;;;;;;5035911;28;20124;-75
2020/12/04 06:51:40;;;;;;;1.13;0.90;;;7.30;99.20;;;;;;5025476;28;20026;-76
2020/12/04 06:54:07;;;;;;;1.35;0.70;;;7.30;99.20;;;;;;5028881;28;20093;-74
2020/12/04 06:56:33;;;;;;;1.50;0.90;;;7.40;99.30;;;;;;5027376;28;20065;-75
2020/12/04 06:58:59;;;;;;;2.10;0.90;;;7.50;98.90;;;;;;5031358;28;20022;-75
2020/12/04 07:01:24;;;;;;;2.55;1.10;;;7.50;98.60;;;;;;5023829;28;20088;-74
2020/12/04 07:03:54;;;;;;;1.67;1.00;;;7.50;98.90;;;;;;5021914;28;20029;-75
2020/12/04 09:58:37;;;;;;;2.38;1.00;;;8.20;95.70;;;;;;5061037;27;20371;-76
2020/12/04 10:01:03;;;;;;;2.35;0.98;;;8.20;95.90;;;;;;5039805;28;20037;-76
2020/12/04 10:03:28;;;;;;;1.70;1.10;;;8.30;96.10;;;;;;5036843;28;20029;-76
2020/12/04 10:05:54;;;;;;;1.17;0.82;;;8.30;96.00;;;;;;5041837;28;20072;-75
2020/12/04 10:08:19;;;;;;;1.45;0.90;;;8.30;96.10;;;;;;5025388;28;20045;-75
2020/12/04 10:10:45;;;;;;;1.90;0.93;;;8.30;95.90;;;;;;5047039;28;20047;-76
2020/12/04 10:13:11;;;;;;;1.60;0.80;;;8.40;95.70;;;;;;5041311;28;20037;-76
2020/12/04 10:15:39;;;;;;;1.73;1.00;;;8.50;95.00;;;;;;5029763;28;20437;-75
2020/12/04 10:18:07;;;;;;;2.42;0.80;;;8.50;95.20;;;;;;5037951;28;20073;-76
2020/12/04 10:20:32;;;;;;;1.83;0.80;;;8.50;94.90;;;;;;5038664;28;20041;-76
2020/12/04 10:22:58;;;;;;;1.20;0.70;;;8.50;94.70;;;;;;5039700;28;20026;-77
2020/12/04 10:25:24;;;;;;;1.65;0.73;;;8.50;94.80;;;;;;5041581;28;20095;-75
2020/12/04 10:27:49;;;;;;;2.30;0.85;;;8.50;95.10;;;;;;5043603;28;20120;-76
2020/12/04 10:30:17;;;;;;;1.85;0.70;;;8.50;95.20;;;;;;5028128;28;20529;-75
2020/12/04 10:32:43;;;;;;;1.85;0.80;;;8.20;95.50;;;;;;5038360;28;20053;-76
2020/12/04 10:35:08;;;;;;;1.52;0.80;;;8.20;95.50;;;;;;5030896;28;20057;-76
2020/12/04 10:37:34;;;;;;;1.42;0.90;;;8.30;95.40;;;;;;5037172;28;20442;-75
2020/12/04 10:39:59;;;;;;;1.48;1.00;;;8.30;95.60;;;;;;5028291;28;20041;-75
2020/12/04 10:42:25;;;;;;;1.75;0.90;;;8.40;95.80;;;;;;5022282;28;20066;-74
2020/12/04 10:44:51;;;;;;;1.63;0.90;;;8.40;95.40;;;;;;5033949;28;20065;-74
2020/12/04 10:47:16;;;;;;;2.85;1.23;;;8.60;95.40;;;;;;5042291;28;20117;-75
2020/12/04 10:49:42;;;;;;;1.52;0.82;;;8.40;95.60;;;;;;5038040;28;20064;-74
2020/12/04 10:52:08;;;;;;;2.72;1.23;;;8.40;95.70;;;;;;5035002;28;20033;-74
2020/12/04 10:54:33;;;;;;;2.60;1.45;;;8.30;95.90;;;;;;5038100;28;20041;-74
2020/12/04 10:56:59;;;;;;;1.23;0.80;;;8.30;95.70;;;;;;5034032;28;20088;-74
2020/12/04 10:59:25;;;;;;;1.88;0.80;;;8.30;95.60;;;;;;5037582;28;20274;-75
2020/12/04 11:01:58;;;;;;;1.25;0.80;;;8.30;95.90;;;;;;5039053;28;20065;-76
2020/12/04 11:07:09;;;;;;;2.28;0.90;;;8.30;96.10;;;;;;5037405;28;20032;-75
2020/12/04 11:09:35;;;;;;;0.90;0.60;;;8.40;96.00;;;;;;5022889;28;20156;-74
2020/12/04 11:12:01;;;;;;;1.92;0.77;;;8.50;95.50;;;;;;5003879;28;20042;-74
2020/12/04 11:14:26;;;;;;;0.93;0.68;;;8.50;95.10;;;;;;5017422;28;20045;-75
2020/12/04 11:16:52;;;;;;;1.50;0.90;;;8.40;95.40;;;;;;5006215;28;20042;-77
2020/12/04 11:19:18;;;;;;;0.90;0.70;;;8.40;95.90;;;;;;5026014;28;20034;-75
2020/12/04 11:21:43;;;;;;;1.40;0.68;;;8.40;96.00;;;;;;5025601;28;20083;-74
2020/12/04 11:24:09;;;;;;;1.08;0.70;;;8.30;95.50;;;;;;5023628;28;20030;-75
2020/12/04 11:26:35;;;;;;;2.63;0.80;;;8.30;95.60;;;;;;5019137;28;20049;-74
2020/12/04 11:29:00;;;;;;;1.45;0.80;;;8.40;95.10;;;;;;5021150;28;20544;-75
2020/12/04 11:31:26;;;;;;;1.15;0.70;;;8.40;95.40;;;;;;5016615;28;20466;-74
2020/12/04 11:33:52;;;;;;;1.48;0.85;;;8.40;95.40;;;;;;5009915;28;20037;-76
2020/12/04 11:36:17;;;;;;;1.88;0.80;;;8.40;95.30;;;;;;5013130;28;20089;-74
2020/12/04 11:38:43;;;;;;;1.52;0.82;;;8.30;95.50;;;;;;5000995;28;20041;-73
2020/12/04 11:41:10;;;;;;;1.33;0.80;;;8.30;95.60;;;;;;5014192;28;20128;-75
2020/12/04 11:43:35;;;;;;;4.70;1.00;;;8.30;95.70;;;;;;5019473;28;20495;-75
2020/12/04 11:46:01;;;;;;;4.80;1.08;;;8.30;95.50;;;;;;5012806;28;20063;-75
2020/12/04 11:48:27;;;;;;;0.60;0.60;;;8.30;95.70;;;;;;5017297;28;20045;-75
2020/12/04 11:50:53;;;;;;;1.88;0.80;;;8.40;94.90;;;;;;5021001;28;20049;-75
2020/12/04 11:53:18;;;;;;;1.85;0.90;;;8.50;94.70;;;;;;5021772;28;20063;-76
2020/12/04 11:55:44;;;;;;;1.58;0.70;;;8.50;95.00;;;;;;4999786;28;20050;-76
2020/12/04 11:58:10;;;;;;;1.65;0.95;;;8.40;95.10;;;;;;5013951;28;20049;-75
2020/12/04 12:00:36;;;;;;;1.25;0.73;;;8.40;95.00;;;;;;5012580;28;20693;-74
2020/12/04 12:03:01;;;;;;;1.90;0.80;;;8.40;94.80;;;;;;4994944;28;20037;-76
2020/12/04 12:05:27;;;;;;;2.03;1.00;;;8.30;94.90;;;;;;5000563;28;20030;-74
2020/12/04 12:07:53;;;;;;;2.80;0.93;;;8.30;95.10;;;;;;5011089;28;20049;-77
2020/12/04 12:10:19;;;;;;;2.28;0.90;;;8.30;95.10;;;;;;5013868;28;20041;-76
2020/12/04 12:12:47;;;;;;;1.23;0.88;;;8.30;95.00;;;;;;5002846;28;20041;-76
2020/12/04 12:15:13;;;;;;;2.35;0.90;;;8.30;95.20;;;;;;5011826;28;20128;-75
2020/12/04 12:17:39;;;;;;;1.48;0.80;;;8.40;95.00;;;;;;5013275;28;20065;-75
2020/12/04 12:20:05;;;;;;;2.92;1.00;;;8.30;94.90;;;;;;5018574;28;20033;-76
2020/12/04 12:22:30;;;;;;;1.63;0.95;;;8.40;95.00;;;;;;5020092;28;20041;-75
2020/12/04 12:24:56;;;;;;;2.13;0.95;;;8.30;94.60;;;;;;5016762;28;20583;-75
2020/12/04 12:27:22;;;;;;;2.33;1.10;;;8.40;95.10;;;;;;5016916;28;20045;-74
2020/12/04 12:29:47;;;;;;;11.13;2.05;;;8.30;95.30;;;;;;5014871;28;20446;-78
2020/12/04 12:32:13;;;;;;;6.63;1.50;;;8.30;95.00;;;;;;5012224;28;20046;-75
2020/12/04 12:37:24;;;;;;;2.22;0.90;;;8.40;95.10;;;;;;5015958;28;20580;-75
2020/12/04 12:39:51;;;;;;;1.35;0.82;;;8.40;95.10;;;;;;5015901;28;20187;-75
2020/12/04 12:42:18;;;;;;;0.95;0.73;;;8.40;94.70;;;;;;5014573;28;20115;-75
2020/12/04 12:44:45;;;;;;;5.28;1.27;;;8.40;94.70;;;;;;5010894;28;20141;-76
2020/12/04 12:47:11;;;;;;;1.70;0.80;;;8.40;95.00;;;;;;5011786;28;20029;-76
2020/12/04 12:49:38;;;;;;;1.23;0.88;;;8.40;94.70;;;;;;5015461;28;20037;-77
2020/12/04 12:52:04;;;;;;;1.00;0.70;;;8.40;95.10;;;;;;5020478;28;20030;-74
2020/12/04 12:54:30;;;;;;;1.55;0.75;;;8.40;94.60;;;;;;5013352;28;20057;-76
2020/12/04 12:56:56;;;;;;;3.55;1.17;;;8.30;94.90;;;;;;5016449;28;20136;-75
2020/12/04 12:59:25;;;;;;;3.45;1.35;;;8.30;95.10;;;;;;5013324;28;20029;-75
2020/12/04 13:01:54;;;;;;;1.92;1.00;;;8.20;95.10;;;;;;5016123;28;20040;-77
2020/12/04 13:04:20;;;;;;;1.25;0.80;;;8.20;95.30;;;;;;5008667;28;20037;-79
2020/12/04 13:06:47;;;;;;;1.55;0.90;;;8.20;95.00;;;;;;5024428;28;20029;-76
2020/12/04 13:09:13;;;;;;;2.40;1.05;;;8.20;94.70;;;;;;5018403;28;20042;-77
2020/12/04 13:11:42;;;;;;;2.95;1.42;;;8.20;94.80;;;;;;5012725;28;20052;-76
2020/12/04 13:14:08;;;;;;;2.60;1.20;;;8.20;95.10;;;;;;5013947;28;20505;-75
2020/12/04 13:16:41;;;;;;;3.42;1.30;;;8.20;95.10;;;;;;5012651;28;20045;-76
2020/12/04 13:19:09;;;;;;;1.80;0.90;;;8.10;95.00;;;;;;5011266;28;20034;-79
2020/12/04 13:24:19;;;;;;;3.50;1.02;;;8.10;94.90;;;;;;5015871;28;20091;-75
2020/12/04 13:26:46;;;;;;;1.88;0.80;;;8.10;94.90;;;;;;5015961;28;20029;-75
2020/12/04 13:29:11;;;;;;;2.03;0.80;;;8.00;95.60;;;;;;5011948;28;20034;-75
2020/12/04 13:31:38;;;;;;;1.50;0.82;;;8.00;95.30;;;;;;5011717;28;20489;-78
2020/12/04 13:34:04;;;;;;;1.70;1.00;;;7.90;95.30;;;;;;5014848;28;20033;-75
2020/12/04 13:36:30;;;;;;;5.22;1.23;;;8.00;95.50;;;;;;5022260;28;20041;-74
2020/12/04 13:38:57;;;;;;;4.10;1.52;;;7.90;95.50;;;;;;5019140;28;20454;-76
2020/12/04 13:41:23;;;;;;;1.73;1.10;;;7.90;95.40;;;;;;5010505;28;20041;-79
2020/12/04 13:43:48;;;;;;;2.35;0.90;;;7.90;95.30;;;;;;5019385;28;20080;-75
2020/12/04 13:46:14;;;;;;;1.35;0.90;;;8.00;95.20;;;;;;5011211;28;20412;-75
2020/12/04 13:48:41;;;;;;;2.92;1.02;;;8.10;95.20;;;;;;5011883;28;20087;-75
2020/12/04 13:51:06;;;;;;;1.65;1.00;;;8.10;94.80;;;;;;5011436;28;20049;-74
2020/12/04 13:53:32;;;;;;;3.55;2.08;;;8.20;94.60;;;;;;5020966;28;20033;-78
2020/12/04 13:55:58;;;;;;;2.25;1.15;;;8.10;94.80;;;;;;5001121;28;20172;-76
2020/12/04 13:58:23;;;;;;;3.45;1.95;;;8.00;95.20;;;;;;5019078;28;20495;-76
2020/12/04 14:00:49;;;;;;;2.28;1.00;;;8.00;94.90;;;;;;5017948;28;20037;-75
2020/12/04 14:03:14;;;;;;;2.17;1.13;;;8.00;95.50;;;;;;5019221;28;20037;-77
2020/12/04 14:05:40;;;;;;;1.92;1.00;;;8.00;95.40;;;;;;5023910;28;20036;-77
2020/12/04 14:08:06;;;;;;;2.55;0.90;;;7.90;95.30;;;;;;5015860;28;20044;-75
2020/12/04 14:10:31;;;;;;;1.17;0.80;;;7.80;95.50;;;;;;5014940;28;20058;-77
2020/12/04 14:12:57;;;;;;;2.55;1.60;;;7.80;95.60;;;;;;5034874;28;20072;-77
2020/12/04 14:15:23;;;;;;;1.83;0.90;;;7.80;95.80;;;;;;4983769;28;20499;-76
2020/12/04 14:17:49;;;;;;;2.10;1.20;;;7.70;95.90;;;;;;5017650;28;20029;-76
2020/12/04 14:20:14;;;;;;;2.30;1.02;;;7.70;96.20;;;;;;5022959;28;20045;-77
2020/12/04 14:22:41;;;;;;;2.88;1.30;;;7.80;96.40;;;;;;5014036;28;21814;-77
2020/12/04 14:25:08;;;;;;;1.73;0.90;;;7.90;95.40;;;;;;5018467;28;20053;-77
2020/12/04 14:27:35;;;;;;;1.40;0.80;;;8.00;95.40;;;;;;5027642;28;20030;-77
2020/12/04 14:30:00;;;;;;;2.75;1.30;;;7.90;95.40;;;;;;5013677;28;20036;-77
2020/12/04 14:32:26;;;;;;;1.55;0.98;;;7.80;95.80;;;;;;5000486;28;20049;-76
2020/12/04 14:34:52;;;;;;;2.17;0.88;;;7.80;95.70;;;;;;5010000;28;20618;-78
2020/12/04 14:37:17;;;;;;;2.00;0.85;;;7.70;95.80;;;;;;5011978;28;20038;-76
2020/12/04 14:39:43;;;;;;;15.35;8.95;;;7.80;95.80;;;;;;5018133;28;20148;-76
2020/12/04 14:42:08;;;;;;;2.63;1.33;;;7.70;95.80;;;;;;5018355;28;20049;-75
2020/12/04 14:44:34;;;;;;;2.75;1.17;;;7.80;95.80;;;;;;5020247;28;20026;-76
2020/12/04 14:47:00;;;;;;;2.05;1.00;;;7.90;95.70;;;;;;5024970;28;20080;-76
2020/12/04 14:49:25;;;;;;;2.10;1.00;;;8.00;95.60;;;;;;5002024;28;20129;-76
2020/12/04 14:51:51;;;;;;;2.63;1.40;;;7.80;96.00;;;;;;5019994;28;20041;-76
2020/12/04 14:54:16;;;;;;;1.98;1.00;;;7.80;95.90;;;;;;5015099;28;20042;-76
2020/12/04 14:56:46;;;;;;;2.33;1.00;;;7.80;96.00;;;;;;5016605;28;20649;-75
2020/12/04 14:59:12;;;;;;;2.45;1.02;;;7.80;96.20;;;;;;5019732;28;20033;-77
2020/12/04 15:01:38;;;;;;;1.60;0.90;;;7.90;95.90;;;;;;5017984;28;20038;-77
2020/12/04 15:04:04;;;;;;;1.50;0.90;;;7.70;96.20;;;;;;5004760;28;20121;-76
2020/12/04 15:06:29;;;;;;;1.52;0.82;;;7.70;96.20;;;;;;5013261;28;20042;-75
2020/12/04 15:08:55;;;;;;;2.30;0.98;;;7.70;96.30;;;;;;5021188;28;20033;-75
2020/12/04 15:11:21;;;;;;;2.13;0.90;;;7.70;96.30;;;;;;5021146;28;20029;-76
2020/12/04 15:13:47;;;;;;;3.20;1.23;;;7.70;96.30;;;;;;5011005;28;20049;-77
2020/12/04 15:16:13;;;;;;;2.50;1.10;;;7.70;96.30;;;;;;5020760;28;20037;-77
2020/12/04 15:18:39;;;;;;;1.85;0.95;;;7.60;96.30;;;;;;5019327;28;20049;-76
2020/12/04 15:21:05;;;;;;;1.70;0.98;;;7.60;96.50;;;;;;5016682;28;20034;-77
2020/12/04 15:23:31;;;;;;;1.35;0.93;;;7.60;96.60;;;;;;5020735;28;20036;-77
2020/12/04 15:25:57;;;;;;;1.48;0.98;;;7.50;96.70;;;;;;5015056;28;20065;-78
2020/12/04 15:28:23;;;;;;;2.45;0.98;;;7.50;96.90;;;;;;5014023;28;20064;-77
2020/12/04 15:30:50;;;;;;;2.08;1.08;;;8.90;97.50;;;;;;5015806;28;20065;-77
2020/12/04 15:33:17;;;;;;;3.28;1.30;;;7.40;97.20;;;;;;5019127;28;20065;-78
2020/12/04 15:35:44;;;;;;;2.45;1.30;;;7.40;97.30;;;;;;5010524;28;20048;-77
2020/12/04 15:38:10;;;;;;;3.25;1.27;;;7.30;97.40;;;;;;5024227;28;20482;-77
2020/12/04 15:40:37;;;;;;;2.42;1.40;;;7.30;97.40;;;;;;5022136;28;20073;-79
2020/12/04 15:43:03;;;;;;;2.75;1.20;;;7.30;97.20;;;;;;5019395;28;20068;-77
2020/12/04 15:45:30;;;;;;;2.00;1.10;;;7.30;97.30;;;;;;5035088;28;20033;-75
2020/12/04 15:47:58;;;;;;;2.78;1.60;;;7.30;97.50;;;;;;5018323;28;20109;-76
2020/12/04 15:50:25;;;;;;;3.08;1.60;;;7.20;97.60;;;;;;5019205;28;20491;-77
2020/12/04 15:52:51;;;;;;;2.03;1.25;;;7.10;97.70;;;;;;5014386;28;20574;-77
2020/12/04 15:55:19;;;;;;;1.83;0.95;;;7.10;97.80;;;;;;5001248;28;20064;-75